Pierce City, Missouri
Current Conditions -  °F | °C
As of 11:35 PM on Saturday 22 Nov 2014 (Local Time) from KHFJ Reporting Station
Clear Clear  
Wind Chill: 12°   Ceiling: Unl
Heat Index: 12°   Visibility: 10mi
Dew Point: 10°   Wind: 14mph
Humidity: 88%   Direction: 150°SSE
Pressure: 29.71"   Gusts: 22mph
Location:  36.95°N, 94°W
Report Text: KHFJ 230535Z AUTO 15012G19KT 10SM CLR 12/10 A2971 RMK AO2
Loading
Personal Weather Stations






























Interactive Weather Map New forecast layout! Learn more

10-Day Weather Forecast

Advertisements
Track Severe Weather on mobile